createdAt,value
2018-07-30T00:03:08.503Z,5.13
2018-07-30T00:08:11.640Z,7.00
2018-07-30T00:13:14.756Z,5.10
2018-07-30T00:18:17.886Z,5.13
2018-07-30T00:23:21.015Z,4.90
2018-07-30T00:28:24.131Z,5.40
2018-07-30T00:33:27.236Z,6.83
2018-07-30T00:38:30.336Z,5.80
2018-07-30T00:43:33.453Z,4.80
2018-07-30T00:48:36.585Z,5.40
2018-07-30T00:53:39.686Z,5.17
2018-07-30T00:58:42.800Z,5.57
2018-07-30T01:03:45.883Z,6.90
2018-07-30T01:08:49.007Z,5.00
2018-07-30T01:13:52.168Z,4.90
2018-07-30T01:18:55.279Z,6.83
2018-07-30T01:29:07.912Z,6.20
2018-07-30T01:34:11.045Z,6.97
2018-07-30T01:39:14.153Z,6.33
2018-07-30T01:44:17.260Z,5.80
2018-07-30T01:49:20.366Z,5.23
2018-07-30T01:54:23.484Z,5.83
2018-07-30T01:59:26.602Z,5.43
2018-07-30T02:04:29.733Z,5.90
2018-07-30T02:09:32.864Z,5.80
2018-07-30T02:14:35.959Z,6.37
2018-07-30T02:19:39.063Z,5.70
2018-07-30T02:24:42.176Z,6.10
2018-07-30T02:29:45.311Z,5.80
2018-07-30T02:34:48.403Z,6.20
2018-07-30T02:39:51.341Z,6.07
2018-07-30T02:44:54.457Z,6.03
2018-07-30T02:49:57.583Z,6.47
2018-07-30T02:55:00.676Z,7.40
2018-07-30T03:00:03.804Z,5.63
2018-07-30T03:05:06.925Z,6.37
2018-07-30T03:10:10.057Z,6.50
2018-07-30T03:15:13.172Z,7.27
2018-07-30T03:20:16.308Z,6.30
2018-07-30T03:25:19.428Z,7.27
2018-07-30T03:30:22.588Z,7.53
2018-07-30T03:35:25.720Z,7.13
2018-07-30T03:40:28.868Z,6.43
2018-07-30T03:45:31.994Z,6.73
2018-07-30T03:50:35.144Z,5.67
2018-07-30T03:55:38.292Z,7.47
2018-07-30T04:00:41.417Z,8.40
2018-07-30T04:05:44.336Z,6.83
2018-07-30T04:10:47.480Z,6.73
2018-07-30T04:15:50.617Z,5.90
2018-07-30T04:20:53.847Z,7.10
2018-07-30T04:25:56.771Z,7.20
2018-07-30T04:30:59.937Z,6.87
2018-07-30T04:36:03.198Z,6.80
2018-07-30T04:41:06.607Z,6.67
2018-07-30T04:46:09.748Z,6.30
2018-07-30T04:51:12.913Z,6.80
2018-07-30T04:56:16.210Z,6.70
2018-07-30T05:01:19.172Z,5.97
2018-07-30T05:06:22.517Z,6.60
2018-07-30T05:11:25.459Z,6.80
2018-07-30T05:16:28.592Z,6.10
2018-07-30T05:21:31.736Z,6.53
2018-07-30T05:26:34.886Z,5.97
2018-07-30T05:31:38.181Z,6.57
2018-07-30T05:36:41.265Z,6.40
2018-07-30T05:41:44.167Z,7.37
2018-07-30T05:46:47.294Z,6.23
2018-07-30T05:51:50.436Z,5.60
2018-07-30T05:56:53.543Z,7.53
2018-07-30T06:01:56.685Z,7.90
2018-07-30T06:06:59.808Z,6.80
2018-07-30T06:12:02.951Z,6.07
2018-07-30T06:17:06.094Z,6.67
2018-07-30T06:22:09.252Z,6.50
2018-07-30T06:27:12.393Z,6.20
2018-07-30T06:32:15.605Z,6.63
2018-07-30T06:37:18.728Z,6.80
2018-07-30T06:42:21.902Z,7.60
2018-07-30T06:47:25.041Z,5.67
2018-07-30T06:52:28.173Z,7.03
2018-07-30T06:57:31.303Z,5.70
2018-07-30T07:02:34.581Z,6.07
2018-07-30T07:07:37.717Z,5.37
2018-07-30T07:12:40.881Z,6.67
2018-07-30T07:17:44.614Z,6.93
2018-07-30T07:22:47.748Z,6.60
2018-07-30T07:27:50.916Z,6.73
2018-07-30T07:32:54.006Z,7.07
2018-07-30T07:37:57.168Z,5.83
2018-07-30T07:43:00.093Z,4.87
2018-07-30T07:48:03.204Z,6.90
2018-07-30T07:53:06.357Z,6.60
2018-07-30T07:58:09.504Z,6.70
2018-07-30T08:03:12.654Z,5.70
2018-07-30T08:08:15.794Z,5.57
2018-07-30T08:13:18.988Z,6.20
2018-07-30T08:18:22.109Z,5.20
2018-07-30T08:23:25.222Z,5.00
2018-07-30T08:28:28.341Z,5.27
2018-07-30T08:33:31.489Z,5.20
2018-07-30T08:38:34.624Z,4.60
2018-07-30T08:43:38.045Z,5.00
2018-07-30T08:48:41.214Z,4.70
2018-07-30T08:53:44.350Z,5.10
2018-07-30T08:58:47.468Z,5.57
2018-07-30T09:03:50.589Z,4.57
2018-07-30T09:08:53.882Z,5.23
2018-07-30T09:13:57.007Z,5.13
2018-07-30T09:19:00.154Z,5.33
2018-07-30T09:24:03.604Z,4.50
2018-07-30T09:29:06.724Z,4.60
2018-07-30T09:34:10.025Z,4.47
2018-07-30T09:39:13.241Z,4.73
2018-07-30T09:44:16.440Z,4.60
2018-07-30T09:49:20.409Z,4.70
2018-07-30T09:54:23.565Z,4.20
2018-07-30T09:59:26.724Z,4.10
2018-07-30T10:04:29.865Z,3.30
2018-07-30T10:09:33.025Z,3.90
2018-07-30T10:14:36.221Z,3.70
2018-07-30T10:19:39.382Z,4.07
2018-07-30T10:24:42.510Z,3.97
2018-07-30T10:29:45.633Z,3.77
2018-07-30T10:34:48.748Z,3.77
2018-07-30T10:39:51.922Z,3.63
2018-07-30T10:44:55.037Z,3.37
2018-07-30T10:49:58.152Z,4.77
2018-07-30T10:55:01.306Z,4.50
2018-07-30T11:00:04.773Z,3.90
2018-07-30T11:05:08.198Z,3.63
2018-07-30T11:10:11.321Z,3.43
2018-07-30T11:15:14.491Z,3.53
2018-07-30T11:20:17.612Z,3.80
2018-07-30T11:25:20.740Z,3.00
2018-07-30T11:30:23.863Z,3.53
2018-07-30T11:35:26.783Z,3.63
2018-07-30T11:40:29.926Z,3.10
2018-07-30T11:45:33.129Z,3.90
2018-07-30T11:50:36.247Z,3.37
2018-07-30T11:55:39.385Z,3.37
2018-07-30T12:00:42.525Z,2.80
2018-07-30T12:05:45.659Z,3.80
2018-07-30T12:10:48.858Z,3.33
2018-07-30T12:15:52.314Z,3.70
2018-07-30T12:20:55.642Z,3.80
2018-07-30T12:25:58.777Z,3.73
2018-07-30T12:31:01.930Z,4.33
2018-07-30T12:36:05.280Z,3.37
2018-07-30T12:41:08.415Z,3.50
2018-07-30T12:46:11.529Z,4.00
2018-07-30T12:51:14.700Z,3.60
2018-07-30T12:56:17.641Z,3.53
2018-07-30T13:01:20.801Z,3.40
2018-07-30T13:06:23.931Z,3.20
2018-07-30T13:11:27.054Z,3.00
2018-07-30T13:16:30.292Z,3.83
2018-07-30T13:21:33.492Z,3.40
2018-07-30T13:26:36.827Z,3.50
2018-07-30T13:31:39.866Z,3.23
2018-07-30T13:36:43.045Z,3.30
2018-07-30T13:41:46.213Z,3.00
2018-07-30T13:46:49.424Z,3.83
2018-07-30T13:51:52.649Z,3.40
2018-07-30T13:56:55.789Z,3.20
2018-07-30T14:01:58.928Z,3.20
2018-07-30T14:07:02.069Z,3.23
2018-07-30T14:12:05.205Z,3.00
2018-07-30T14:17:08.357Z,3.03
2018-07-30T14:22:11.481Z,3.23
2018-07-30T14:27:14.740Z,3.60
2018-07-30T14:32:17.911Z,3.03
2018-07-30T14:37:21.113Z,3.50
2018-07-30T14:42:24.268Z,3.40
2018-07-30T14:48:51.924Z,3.20
2018-07-30T14:53:55.060Z,3.20
2018-07-30T14:58:58.204Z,2.57
2018-07-30T15:04:01.326Z,3.40
2018-07-30T15:09:07.997Z,2.77
2018-07-30T15:14:11.144Z,3.80
2018-07-30T15:19:14.333Z,3.33
2018-07-30T15:24:17.393Z,3.60
2018-07-30T15:29:20.517Z,2.97
2018-07-30T15:34:23.661Z,3.40
2018-07-30T15:39:26.772Z,3.40
2018-07-30T15:44:29.931Z,3.50
2018-07-30T15:49:33.064Z,4.03
2018-07-30T15:54:36.197Z,3.33
2018-07-30T15:59:39.416Z,3.40
2018-07-30T16:04:42.569Z,3.23
2018-07-30T16:09:45.712Z,3.47
2018-07-30T16:14:48.840Z,3.37
2018-07-30T16:19:52.037Z,3.50
2018-07-30T16:24:55.180Z,2.60
2018-07-30T16:29:58.380Z,4.10
2018-07-30T16:35:01.539Z,3.47
2018-07-30T16:40:05.264Z,2.80
2018-07-30T16:45:09.140Z,3.03
2018-07-30T16:50:12.293Z,3.03
2018-07-30T16:55:15.433Z,3.00
2018-07-30T17:00:18.536Z,3.37
2018-07-30T17:05:21.688Z,2.70
2018-07-30T17:10:24.635Z,2.90
2018-07-30T17:15:27.763Z,2.93
2018-07-30T17:20:30.937Z,3.97
2018-07-30T17:25:34.080Z,4.20
2018-07-30T17:30:37.189Z,3.50
2018-07-30T17:35:40.288Z,3.83
2018-07-30T17:40:43.415Z,3.43
2018-07-30T17:45:46.531Z,3.33
2018-07-30T17:50:49.657Z,3.77
2018-07-30T17:55:52.784Z,3.53
2018-07-30T18:00:55.939Z,4.23
2018-07-30T18:05:59.061Z,3.97
2018-07-30T18:11:02.231Z,4.00
2018-07-30T18:16:05.388Z,3.80
2018-07-30T18:21:08.533Z,3.50
2018-07-30T18:26:11.645Z,4.27
2018-07-30T18:31:14.799Z,3.50
2018-07-30T18:36:18.176Z,4.00
2018-07-30T18:41:21.286Z,4.10
2018-07-30T18:46:24.554Z,3.93
2018-07-30T18:51:27.690Z,4.20
2018-07-30T18:56:30.899Z,4.03
2018-07-30T19:01:33.960Z,4.67
2018-07-30T19:06:37.077Z,4.73
2018-07-30T19:11:40.229Z,4.00
2018-07-30T19:16:43.349Z,4.60
2018-07-30T19:21:46.478Z,4.83
2018-07-30T19:26:49.615Z,4.00
2018-07-30T19:31:52.741Z,4.50
2018-07-30T19:36:55.965Z,4.70
2018-07-30T19:41:59.072Z,4.57
2018-07-30T19:47:02.240Z,5.17
2018-07-30T19:52:05.396Z,4.83
2018-07-30T19:57:08.605Z,5.60
2018-07-30T20:02:11.725Z,6.33
2018-07-30T20:07:14.811Z,5.80
2018-07-30T20:12:18.020Z,4.90
2018-07-30T20:17:21.076Z,5.50
2018-07-30T20:22:24.204Z,5.30
2018-07-30T20:27:27.422Z,5.53
2018-07-30T20:32:30.641Z,4.90
2018-07-30T20:37:33.876Z,5.60
2018-07-30T20:42:37.501Z,5.77
2018-07-30T20:47:40.614Z,5.47
2018-07-30T20:52:43.764Z,5.50
2018-07-30T20:57:46.892Z,5.67
2018-07-30T21:02:50.109Z,5.13
2018-07-30T21:07:53.240Z,5.17
2018-07-30T21:12:56.389Z,6.20
2018-07-30T21:17:59.504Z,6.90
2018-07-30T21:23:02.748Z,5.43
2018-07-30T21:28:05.880Z,4.97
2018-07-30T21:33:09.026Z,6.13
2018-07-30T21:38:12.141Z,5.43
2018-07-30T21:43:15.388Z,5.53
2018-07-30T21:48:18.598Z,5.73
2018-07-30T21:53:21.781Z,6.70
2018-07-30T21:58:25.142Z,5.57
2018-07-30T22:03:28.268Z,6.07
2018-07-30T22:08:31.385Z,5.53
2018-07-30T22:13:34.517Z,5.33
2018-07-30T22:18:37.633Z,6.10
2018-07-30T22:23:40.785Z,6.07
2018-07-30T22:28:43.892Z,5.97
2018-07-30T22:33:47.884Z,5.90
2018-07-30T22:38:51.000Z,6.00
2018-07-30T22:43:54.154Z,6.20
2018-07-30T22:48:57.296Z,6.10
2018-07-30T22:54:00.419Z,7.10
2018-07-30T22:59:03.572Z,6.50
2018-07-30T23:04:06.712Z,5.23
2018-07-30T23:09:09.877Z,6.17
2018-07-30T23:14:13.029Z,7.10
2018-07-30T23:19:16.121Z,6.07
2018-07-30T23:24:19.252Z,6.47
2018-07-30T23:29:22.393Z,6.17
2018-07-30T23:34:25.518Z,5.70
2018-07-30T23:39:28.487Z,6.30
2018-07-30T23:44:31.672Z,5.30
2018-07-30T23:49:34.852Z,5.37
2018-07-30T23:54:37.977Z,5.17
2018-07-30T23:59:41.113Z,5.90
